Terminal Aerodrome Forecast
Issued by NWS

Home | Current Version | Previous Version | Text Only | Print | Product List | Glossary On
Versions: 1 2 3 4 5 6 7 8 9 10 11
578
FTUS43 KGRR 230540
TAFMKG
TAF
KMKG 230540Z 2306/2406 VRB03KT P6SM SKC
     FM231600 26010KT P6SM SKC
     FM240000 02005KT P6SM SKC=

USA.gov is the U.S. government's official web portal to all federal, state and local government web resources and services.